sensor_id;sensor_type;location;lat;lon;timestamp;P1;durP1;ratioP1;P2;durP2;ratioP2
24439;SDS011;12618;54.386;18.394;2022-10-18T00:02:30;6.30;;;5.28;;
24439;SDS011;12618;54.386;18.394;2022-10-18T00:05:00;7.45;;;5.58;;
24439;SDS011;12618;54.386;18.394;2022-10-18T00:07:33;5.70;;;4.85;;
24439;SDS011;12618;54.386;18.394;2022-10-18T00:10:03;5.12;;;4.62;;
24439;SDS011;12618;54.386;18.394;2022-10-18T00:12:34;5.45;;;4.92;;
24439;SDS011;12618;54.386;18.394;2022-10-18T00:15:06;5.60;;;4.60;;
24439;SDS011;12618;54.386;18.394;2022-10-18T00:17:37;6.47;;;4.97;;
24439;SDS011;12618;54.386;18.394;2022-10-18T00:20:08;5.70;;;4.58;;
24439;SDS011;12618;54.386;18.394;2022-10-18T00:22:39;7.05;;;4.83;;
24439;SDS011;12618;54.386;18.394;2022-10-18T00:25:10;5.28;;;4.78;;
24439;SDS011;12618;54.386;18.394;2022-10-18T00:27:40;6.28;;;4.80;;
24439;SDS011;12618;54.386;18.394;2022-10-18T00:30:11;6.85;;;4.55;;
24439;SDS011;12618;54.386;18.394;2022-10-18T00:32:41;5.30;;;4.60;;
24439;SDS011;12618;54.386;18.394;2022-10-18T00:35:12;5.35;;;4.78;;
24439;SDS011;12618;54.386;18.394;2022-10-18T00:37:42;4.97;;;4.47;;
24439;SDS011;12618;54.386;18.394;2022-10-18T00:40:13;5.70;;;3.95;;
24439;SDS011;12618;54.386;18.394;2022-10-18T00:42:43;5.22;;;3.95;;
24439;SDS011;12618;54.386;18.394;2022-10-18T00:45:18;4.15;;;3.75;;
24439;SDS011;12618;54.386;18.394;2022-10-18T00:47:57;3.70;;;3.25;;
24439;SDS011;12618;54.386;18.394;2022-10-18T00:50:24;4.85;;;3.70;;
24439;SDS011;12618;54.386;18.394;2022-10-18T00:52:56;6.00;;;3.80;;
24439;SDS011;12618;54.386;18.394;2022-10-18T00:55:30;3.67;;;3.37;;
24439;SDS011;12618;54.386;18.394;2022-10-18T00:58:02;4.00;;;3.60;;
24439;SDS011;12618;54.386;18.394;2022-10-18T01:00:33;6.75;;;3.98;;
24439;SDS011;12618;54.386;18.394;2022-10-18T01:03:05;4.10;;;3.70;;
24439;SDS011;12618;54.386;18.394;2022-10-18T01:05:37;3.52;;;3.22;;
24439;SDS011;12618;54.386;18.394;2022-10-18T01:16:14;4.70;;;3.83;;
24439;SDS011;12618;54.386;18.394;2022-10-18T01:18:46;5.53;;;3.67;;
24439;SDS011;12618;54.386;18.394;2022-10-18T01:27:02;4.45;;;3.25;;
24439;SDS011;12618;54.386;18.394;2022-10-18T01:29:54;4.00;;;3.60;;
24439;SDS011;12618;54.386;18.394;2022-10-18T01:32:08;4.78;;;4.30;;
24439;SDS011;12618;54.386;18.394;2022-10-18T01:34:38;4.33;;;3.67;;
24439;SDS011;12618;54.386;18.394;2022-10-18T01:37:13;3.83;;;3.33;;
24439;SDS011;12618;54.386;18.394;2022-10-18T01:39:44;5.92;;;3.90;;
24439;SDS011;12618;54.386;18.394;2022-10-18T01:42:16;5.25;;;4.20;;
24439;SDS011;12618;54.386;18.394;2022-10-18T01:44:48;4.15;;;3.75;;
24439;SDS011;12618;54.386;18.394;2022-10-18T01:47:19;4.72;;;4.10;;
24439;SDS011;12618;54.386;18.394;2022-10-18T01:49:55;5.12;;;4.10;;
24439;SDS011;12618;54.386;18.394;2022-10-18T01:52:23;6.37;;;4.08;;
24439;SDS011;12618;54.386;18.394;2022-10-18T01:54:53;4.22;;;3.83;;
24439;SDS011;12618;54.386;18.394;2022-10-18T02:00:22;3.83;;;3.35;;
24439;SDS011;12618;54.386;18.394;2022-10-18T02:08:41;4.15;;;2.98;;
24439;SDS011;12618;54.386;18.394;2022-10-18T02:10:38;3.70;;;3.17;;
24439;SDS011;12618;54.386;18.394;2022-10-18T02:13:09;5.08;;;3.12;;
24439;SDS011;12618;54.386;18.394;2022-10-18T02:15:42;4.53;;;3.33;;
24439;SDS011;12618;54.386;18.394;2022-10-18T02:18:15;5.78;;;3.40;;
24439;SDS011;12618;54.386;18.394;2022-10-18T02:20:45;4.08;;;3.58;;
24439;SDS011;12618;54.386;18.394;2022-10-18T02:23:18;5.12;;;3.17;;
24439;SDS011;12618;54.386;18.394;2022-10-18T02:25:49;4.40;;;3.12;;
24439;SDS011;12618;54.386;18.394;2022-10-18T02:28:20;6.08;;;2.90;;
24439;SDS011;12618;54.386;18.394;2022-10-18T02:30:53;3.27;;;2.40;;
24439;SDS011;12618;54.386;18.394;2022-10-18T02:33:31;6.28;;;2.77;;
24439;SDS011;12618;54.386;18.394;2022-10-18T02:35:58;3.77;;;2.80;;
24439;SDS011;12618;54.386;18.394;2022-10-18T02:38:30;3.75;;;2.67;;
24439;SDS011;12618;54.386;18.394;2022-10-18T02:41:01;2.85;;;2.65;;
24439;SDS011;12618;54.386;18.394;2022-10-18T02:43:31;4.22;;;2.70;;
24439;SDS011;12618;54.386;18.394;2022-10-18T02:46:02;4.40;;;2.45;;
24439;SDS011;12618;54.386;18.394;2022-10-18T02:48:32;3.05;;;2.60;;
24439;SDS011;12618;54.386;18.394;2022-10-18T02:51:03;4.12;;;2.72;;
24439;SDS011;12618;54.386;18.394;2022-10-18T02:53:33;3.92;;;2.87;;
24439;SDS011;12618;54.386;18.394;2022-10-18T02:56:04;3.62;;;2.90;;
24439;SDS011;12618;54.386;18.394;2022-10-18T02:58:34;3.83;;;2.98;;
24439;SDS011;12618;54.386;18.394;2022-10-18T03:01:05;3.00;;;2.50;;
24439;SDS011;12618;54.386;18.394;2022-10-18T03:03:35;4.25;;;2.42;;
24439;SDS011;12618;54.386;18.394;2022-10-18T03:06:06;3.90;;;3.10;;
24439;SDS011;12618;54.386;18.394;2022-10-18T03:08:36;5.15;;;2.80;;
24439;SDS011;12618;54.386;18.394;2022-10-18T03:11:07;5.78;;;3.47;;
24439;SDS011;12618;54.386;18.394;2022-10-18T03:13:37;4.15;;;3.10;;
24439;SDS011;12618;54.386;18.394;2022-10-18T03:16:07;4.35;;;2.87;;
24439;SDS011;12618;54.386;18.394;2022-10-18T03:18:38;4.30;;;3.00;;
24439;SDS011;12618;54.386;18.394;2022-10-18T03:21:08;4.78;;;3.00;;
24439;SDS011;12618;54.386;18.394;2022-10-18T03:23:39;4.92;;;3.27;;
24439;SDS011;12618;54.386;18.394;2022-10-18T03:26:11;4.58;;;3.05;;
24439;SDS011;12618;54.386;18.394;2022-10-18T03:28:41;5.47;;;3.40;;
24439;SDS011;12618;54.386;18.394;2022-10-18T03:31:12;7.78;;;3.52;;
24439;SDS011;12618;54.386;18.394;2022-10-18T03:33:42;4.33;;;3.15;;
24439;SDS011;12618;54.386;18.394;2022-10-18T03:36:13;3.10;;;2.80;;
24439;SDS011;12618;54.386;18.394;2022-10-18T03:38:43;4.62;;;2.98;;
24439;SDS011;12618;54.386;18.394;2022-10-18T03:41:14;4.12;;;3.12;;
24439;SDS011;12618;54.386;18.394;2022-10-18T03:43:45;7.40;;;3.42;;
24439;SDS011;12618;54.386;18.394;2022-10-18T03:46:16;4.83;;;3.05;;
24439;SDS011;12618;54.386;18.394;2022-10-18T03:48:46;5.35;;;3.17;;
24439;SDS011;12618;54.386;18.394;2022-10-18T03:51:17;4.80;;;3.30;;
24439;SDS011;12618;54.386;18.394;2022-10-18T03:53:47;5.85;;;3.12;;
24439;SDS011;12618;54.386;18.394;2022-10-18T03:56:18;4.22;;;3.00;;
24439;SDS011;12618;54.386;18.394;2022-10-18T03:58:48;6.03;;;3.10;;
24439;SDS011;12618;54.386;18.394;2022-10-18T04:01:19;4.42;;;3.15;;
24439;SDS011;12618;54.386;18.394;2022-10-18T04:03:49;5.42;;;2.90;;
24439;SDS011;12618;54.386;18.394;2022-10-18T04:06:20;5.03;;;3.10;;
24439;SDS011;12618;54.386;18.394;2022-10-18T04:08:50;7.70;;;3.45;;
24439;SDS011;12618;54.386;18.394;2022-10-18T04:11:20;4.35;;;2.85;;
24439;SDS011;12618;54.386;18.394;2022-10-18T04:13:51;7.12;;;3.30;;
24439;SDS011;12618;54.386;18.394;2022-10-18T04:16:21;6.08;;;3.35;;
24439;SDS011;12618;54.386;18.394;2022-10-18T04:18:52;3.90;;;3.20;;
24439;SDS011;12618;54.386;18.394;2022-10-18T04:21:22;6.33;;;3.22;;
24439;SDS011;12618;54.386;18.394;2022-10-18T04:23:53;7.17;;;3.10;;
24439;SDS011;12618;54.386;18.394;2022-10-18T04:26:23;7.70;;;3.45;;
24439;SDS011;12618;54.386;18.394;2022-10-18T04:28:53;6.30;;;3.10;;
24439;SDS011;12618;54.386;18.394;2022-10-18T04:31:24;7.03;;;3.33;;
24439;SDS011;12618;54.386;18.394;2022-10-18T04:33:54;6.78;;;3.17;;
24439;SDS011;12618;54.386;18.394;2022-10-18T04:36:25;5.30;;;3.35;;
24439;SDS011;12618;54.386;18.394;2022-10-18T04:38:55;4.43;;;2.87;;
24439;SDS011;12618;54.386;18.394;2022-10-18T04:41:25;5.95;;;3.17;;
24439;SDS011;12618;54.386;18.394;2022-10-18T04:43:56;8.50;;;3.80;;
24439;SDS011;12618;54.386;18.394;2022-10-18T04:46:26;5.78;;;3.15;;
24439;SDS011;12618;54.386;18.394;2022-10-18T04:48:57;7.97;;;3.47;;
24439;SDS011;12618;54.386;18.394;2022-10-18T04:51:29;8.70;;;3.62;;
24439;SDS011;12618;54.386;18.394;2022-10-18T04:54:00;9.63;;;3.83;;
24439;SDS011;12618;54.386;18.394;2022-10-18T04:56:30;9.25;;;3.65;;
24439;SDS011;12618;54.386;18.394;2022-10-18T04:59:01;5.03;;;3.25;;
24439;SDS011;12618;54.386;18.394;2022-10-18T05:01:31;8.68;;;3.70;;
24439;SDS011;12618;54.386;18.394;2022-10-18T05:04:02;7.20;;;3.98;;
24439;SDS011;12618;54.386;18.394;2022-10-18T05:06:32;7.42;;;3.83;;
24439;SDS011;12618;54.386;18.394;2022-10-18T05:09:02;7.30;;;3.83;;
24439;SDS011;12618;54.386;18.394;2022-10-18T05:11:33;6.10;;;3.70;;
24439;SDS011;12618;54.386;18.394;2022-10-18T05:14:03;6.72;;;3.60;;
24439;SDS011;12618;54.386;18.394;2022-10-18T05:16:34;7.92;;;3.67;;
24439;SDS011;12618;54.386;18.394;2022-10-18T05:19:04;7.33;;;3.80;;
24439;SDS011;12618;54.386;18.394;2022-10-18T05:21:35;7.78;;;4.58;;
24439;SDS011;12618;54.386;18.394;2022-10-18T05:24:05;6.35;;;4.05;;
24439;SDS011;12618;54.386;18.394;2022-10-18T05:26:36;9.68;;;4.25;;
24439;SDS011;12618;54.386;18.394;2022-10-18T05:29:06;8.33;;;4.45;;
24439;SDS011;12618;54.386;18.394;2022-10-18T05:31:37;6.78;;;3.95;;
24439;SDS011;12618;54.386;18.394;2022-10-18T05:34:07;9.83;;;4.40;;
24439;SDS011;12618;54.386;18.394;2022-10-18T05:36:37;7.90;;;4.28;;
24439;SDS011;12618;54.386;18.394;2022-10-18T05:39:08;8.30;;;3.98;;
24439;SDS011;12618;54.386;18.394;2022-10-18T05:41:38;8.38;;;4.58;;
24439;SDS011;12618;54.386;18.394;2022-10-18T05:44:09;8.27;;;4.27;;
24439;SDS011;12618;54.386;18.394;2022-10-18T05:46:39;7.62;;;4.55;;
24439;SDS011;12618;54.386;18.394;2022-10-18T05:49:13;8.63;;;4.67;;
24439;SDS011;12618;54.386;18.394;2022-10-18T05:54:14;9.48;;;3.95;;
24439;SDS011;12618;54.386;18.394;2022-10-18T05:56:44;9.50;;;4.33;;
24439;SDS011;12618;54.386;18.394;2022-10-18T05:59:15;7.45;;;4.10;;
24439;SDS011;12618;54.386;18.394;2022-10-18T06:01:45;7.70;;;3.90;;
24439;SDS011;12618;54.386;18.394;2022-10-18T06:04:15;9.28;;;4.20;;
24439;SDS011;12618;54.386;18.394;2022-10-18T06:06:47;7.65;;;4.90;;
24439;SDS011;12618;54.386;18.394;2022-10-18T06:09:17;7.00;;;4.85;;
24439;SDS011;12618;54.386;18.394;2022-10-18T06:11:47;7.60;;;4.37;;
24439;SDS011;12618;54.386;18.394;2022-10-18T06:14:18;11.40;;;4.55;;
24439;SDS011;12618;54.386;18.394;2022-10-18T06:16:48;8.43;;;4.60;;
24439;SDS011;12618;54.386;18.394;2022-10-18T06:19:19;9.95;;;5.00;;
24439;SDS011;12618;54.386;18.394;2022-10-18T06:21:50;10.15;;;4.50;;
24439;SDS011;12618;54.386;18.394;2022-10-18T06:24:20;7.87;;;4.40;;
24439;SDS011;12618;54.386;18.394;2022-10-18T06:26:51;6.40;;;4.17;;
24439;SDS011;12618;54.386;18.394;2022-10-18T06:29:21;11.40;;;4.30;;
24439;SDS011;12618;54.386;18.394;2022-10-18T06:31:51;10.72;;;4.80;;
24439;SDS011;12618;54.386;18.394;2022-10-18T06:34:22;10.78;;;4.78;;
24439;SDS011;12618;54.386;18.394;2022-10-18T06:36:52;8.80;;;5.08;;
24439;SDS011;12618;54.386;18.394;2022-10-18T06:39:23;8.80;;;4.67;;
24439;SDS011;12618;54.386;18.394;2022-10-18T06:41:53;8.50;;;4.87;;
24439;SDS011;12618;54.386;18.394;2022-10-18T06:44:24;9.83;;;4.50;;
24439;SDS011;12618;54.386;18.394;2022-10-18T06:46:54;11.15;;;4.60;;
24439;SDS011;12618;54.386;18.394;2022-10-18T06:49:24;10.32;;;4.90;;
24439;SDS011;12618;54.386;18.394;2022-10-18T06:51:55;7.92;;;4.03;;
24439;SDS011;12618;54.386;18.394;2022-10-18T06:54:25;8.80;;;3.98;;
24439;SDS011;12618;54.386;18.394;2022-10-18T06:56:56;9.38;;;3.87;;
24439;SDS011;12618;54.386;18.394;2022-10-18T06:59:27;10.30;;;4.28;;
24439;SDS011;12618;54.386;18.394;2022-10-18T07:01:58;6.28;;;3.52;;
24439;SDS011;12618;54.386;18.394;2022-10-18T07:04:28;9.45;;;3.80;;
24439;SDS011;12618;54.386;18.394;2022-10-18T07:06:59;9.38;;;3.60;;
24439;SDS011;12618;54.386;18.394;2022-10-18T07:09:29;8.35;;;3.65;;
24439;SDS011;12618;54.386;18.394;2022-10-18T07:12:00;9.28;;;3.40;;
24439;SDS011;12618;54.386;18.394;2022-10-18T07:14:30;10.95;;;3.30;;
24439;SDS011;12618;54.386;18.394;2022-10-18T07:17:01;7.60;;;3.30;;
24439;SDS011;12618;54.386;18.394;2022-10-18T07:19:31;11.40;;;3.30;;
24439;SDS011;12618;54.386;18.394;2022-10-18T07:22:02;8.73;;;3.52;;
24439;SDS011;12618;54.386;18.394;2022-10-18T07:24:32;7.47;;;3.60;;
24439;SDS011;12618;54.386;18.394;2022-10-18T07:27:02;10.88;;;3.42;;
24439;SDS011;12618;54.386;18.394;2022-10-18T07:29:33;11.80;;;3.52;;
24439;SDS011;12618;54.386;18.394;2022-10-18T07:32:04;6.85;;;3.42;;
24439;SDS011;12618;54.386;18.394;2022-10-18T07:34:34;9.48;;;3.02;;
24439;SDS011;12618;54.386;18.394;2022-10-18T07:37:05;7.75;;;3.40;;
24439;SDS011;12618;54.386;18.394;2022-10-18T07:39:35;9.33;;;3.27;;
24439;SDS011;12618;54.386;18.394;2022-10-18T07:42:05;8.33;;;3.20;;
24439;SDS011;12618;54.386;18.394;2022-10-18T07:44:36;6.35;;;3.15;;
24439;SDS011;12618;54.386;18.394;2022-10-18T07:47:06;9.95;;;3.50;;
24439;SDS011;12618;54.386;18.394;2022-10-18T07:49:37;7.12;;;3.08;;
24439;SDS011;12618;54.386;18.394;2022-10-18T07:52:07;10.53;;;3.10;;
24439;SDS011;12618;54.386;18.394;2022-10-18T07:54:38;8.38;;;3.00;;
24439;SDS011;12618;54.386;18.394;2022-10-18T07:57:08;10.00;;;3.20;;
24439;SDS011;12618;54.386;18.394;2022-10-18T07:59:38;5.95;;;2.90;;
24439;SDS011;12618;54.386;18.394;2022-10-18T08:02:09;6.55;;;2.70;;
24439;SDS011;12618;54.386;18.394;2022-10-18T08:04:39;9.08;;;3.15;;
24439;SDS011;12618;54.386;18.394;2022-10-18T08:09:43;7.35;;;3.17;;
24439;SDS011;12618;54.386;18.394;2022-10-18T08:12:13;9.08;;;3.25;;
24439;SDS011;12618;54.386;18.394;2022-10-18T08:14:48;10.35;;;3.50;;
24439;SDS011;12618;54.386;18.394;2022-10-18T08:17:16;9.75;;;3.17;;
24439;SDS011;12618;54.386;18.394;2022-10-18T08:19:47;9.05;;;3.40;;
24439;SDS011;12618;54.386;18.394;2022-10-18T08:22:17;9.85;;;3.17;;
24439;SDS011;12618;54.386;18.394;2022-10-18T08:24:48;10.28;;;3.00;;
24439;SDS011;12618;54.386;18.394;2022-10-18T08:27:18;8.30;;;3.00;;
24439;SDS011;12618;54.386;18.394;2022-10-18T08:29:49;7.33;;;2.80;;
24439;SDS011;12618;54.386;18.394;2022-10-18T08:32:19;8.35;;;3.30;;
24439;SDS011;12618;54.386;18.394;2022-10-18T08:34:50;7.90;;;3.30;;
24439;SDS011;12618;54.386;18.394;2022-10-18T08:37:20;9.18;;;3.27;;
24439;SDS011;12618;54.386;18.394;2022-10-18T08:39:51;9.38;;;3.20;;
24439;SDS011;12618;54.386;18.394;2022-10-18T08:45:00;9.05;;;2.77;;
24439;SDS011;12618;54.386;18.394;2022-10-18T08:47:33;6.90;;;2.50;;
24439;SDS011;12618;54.386;18.394;2022-10-18T08:50:05;6.90;;;2.42;;
24439;SDS011;12618;54.386;18.394;2022-10-18T08:52:56;6.03;;;2.47;;
24439;SDS011;12618;54.386;18.394;2022-10-18T08:57:56;6.78;;;2.42;;
24439;SDS011;12618;54.386;18.394;2022-10-18T09:00:28;7.80;;;2.35;;
24439;SDS011;12618;54.386;18.394;2022-10-18T09:14:11;8.73;;;3.30;;
24439;SDS011;12618;54.386;18.394;2022-10-18T09:22:03;5.65;;;2.60;;
24439;SDS011;12618;54.386;18.394;2022-10-18T09:24:40;7.75;;;2.50;;
24439;SDS011;12618;54.386;18.394;2022-10-18T09:27:15;8.80;;;2.20;;
24439;SDS011;12618;54.386;18.394;2022-10-18T09:35:28;5.78;;;2.00;;
24439;SDS011;12618;54.386;18.394;2022-10-18T09:37:32;9.65;;;2.45;;
24439;SDS011;12618;54.386;18.394;2022-10-18T09:40:23;8.43;;;2.08;;
24439;SDS011;12618;54.386;18.394;2022-10-18T09:42:54;6.80;;;2.50;;
24439;SDS011;12618;54.386;18.394;2022-10-18T09:45:28;4.58;;;2.25;;
24439;SDS011;12618;54.386;18.394;2022-10-18T09:48:03;7.75;;;2.20;;
24439;SDS011;12618;54.386;18.394;2022-10-18T09:50:39;7.08;;;2.40;;
24439;SDS011;12618;54.386;18.394;2022-10-18T09:58:43;6.33;;;2.27;;
24439;SDS011;12618;54.386;18.394;2022-10-18T10:01:18;7.15;;;2.25;;
24439;SDS011;12618;54.386;18.394;2022-10-18T10:03:43;5.00;;;2.40;;
24439;SDS011;12618;54.386;18.394;2022-10-18T10:06:15;6.55;;;2.00;;
24439;SDS011;12618;54.386;18.394;2022-10-18T10:08:52;5.33;;;2.05;;
24439;SDS011;12618;54.386;18.394;2022-10-18T10:11:28;6.45;;;2.22;;
24439;SDS011;12618;54.386;18.394;2022-10-18T10:14:11;4.75;;;1.92;;
24439;SDS011;12618;54.386;18.394;2022-10-18T10:16:48;5.25;;;2.20;;
24439;SDS011;12618;54.386;18.394;2022-10-18T10:19:20;4.60;;;1.98;;
24439;SDS011;12618;54.386;18.394;2022-10-18T10:21:52;8.30;;;1.98;;
24439;SDS011;12618;54.386;18.394;2022-10-18T10:27:18;4.58;;;2.15;;
24439;SDS011;12618;54.386;18.394;2022-10-18T10:32:18;6.03;;;1.82;;
24439;SDS011;12618;54.386;18.394;2022-10-18T10:34:49;6.05;;;1.90;;
24439;SDS011;12618;54.386;18.394;2022-10-18T10:37:24;6.78;;;1.92;;
24439;SDS011;12618;54.386;18.394;2022-10-18T10:45:33;5.00;;;1.90;;
24439;SDS011;12618;54.386;18.394;2022-10-18T10:48:02;7.78;;;1.60;;
24439;SDS011;12618;54.386;18.394;2022-10-18T10:50:47;7.97;;;2.00;;
24439;SDS011;12618;54.386;18.394;2022-10-18T10:53:12;4.10;;;1.52;;
24439;SDS011;12618;54.386;18.394;2022-10-18T10:55:37;5.58;;;2.37;;
24439;SDS011;12618;54.386;18.394;2022-10-18T10:58:13;7.15;;;1.90;;
24439;SDS011;12618;54.386;18.394;2022-10-18T11:00:41;8.48;;;1.98;;
24439;SDS011;12618;54.386;18.394;2022-10-18T11:03:14;7.08;;;2.12;;
24439;SDS011;12618;54.386;18.394;2022-10-18T11:08:18;6.35;;;2.30;;
24439;SDS011;12618;54.386;18.394;2022-10-18T11:11:04;7.37;;;2.42;;
24439;SDS011;12618;54.386;18.394;2022-10-18T11:16:16;6.15;;;2.35;;
24439;SDS011;12618;54.386;18.394;2022-10-18T11:18:48;6.40;;;2.17;;
24439;SDS011;12618;54.386;18.394;2022-10-18T11:21:24;6.55;;;2.52;;
24439;SDS011;12618;54.386;18.394;2022-10-18T11:23:51;4.30;;;2.15;;
24439;SDS011;12618;54.386;18.394;2022-10-18T11:34:10;7.67;;;2.00;;
24439;SDS011;12618;54.386;18.394;2022-10-18T11:39:25;6.58;;;2.25;;
24439;SDS011;12618;54.386;18.394;2022-10-18T11:42:02;5.25;;;2.10;;
24439;SDS011;12618;54.386;18.394;2022-10-18T11:47:17;6.15;;;2.37;;
24439;SDS011;12618;54.386;18.394;2022-10-18T11:52:26;7.65;;;2.60;;
24439;SDS011;12618;54.386;18.394;2022-10-18T12:00:26;7.35;;;2.35;;
24439;SDS011;12618;54.386;18.394;2022-10-18T12:05:40;5.00;;;1.80;;
24439;SDS011;12618;54.386;18.394;2022-10-18T12:10:59;6.70;;;1.90;;
24439;SDS011;12618;54.386;18.394;2022-10-18T12:13:51;10.58;;;2.00;;
24439;SDS011;12618;54.386;18.394;2022-10-18T12:16:23;8.88;;;2.15;;
24439;SDS011;12618;54.386;18.394;2022-10-18T12:18:56;6.40;;;2.12;;
24439;SDS011;12618;54.386;18.394;2022-10-18T12:21:30;7.00;;;2.17;;
24439;SDS011;12618;54.386;18.394;2022-10-18T12:24:03;7.53;;;2.10;;
24439;SDS011;12618;54.386;18.394;2022-10-18T12:26:34;5.20;;;1.98;;
24439;SDS011;12618;54.386;18.394;2022-10-18T12:31:47;6.75;;;2.20;;
24439;SDS011;12618;54.386;18.394;2022-10-18T12:39:29;9.03;;;2.62;;
24439;SDS011;12618;54.386;18.394;2022-10-18T12:42:00;7.00;;;2.67;;
24439;SDS011;12618;54.386;18.394;2022-10-18T12:44:31;8.40;;;2.77;;
24439;SDS011;12618;54.386;18.394;2022-10-18T12:47:03;10.18;;;2.75;;
24439;SDS011;12618;54.386;18.394;2022-10-18T12:49:35;8.60;;;2.58;;
24439;SDS011;12618;54.386;18.394;2022-10-18T12:52:17;9.33;;;3.00;;
24439;SDS011;12618;54.386;18.394;2022-10-18T12:54:38;8.78;;;2.75;;
24439;SDS011;12618;54.386;18.394;2022-10-18T12:57:21;9.40;;;3.05;;
24439;SDS011;12618;54.386;18.394;2022-10-18T12:59:50;10.10;;;3.08;;
24439;SDS011;12618;54.386;18.394;2022-10-18T13:02:22;8.73;;;3.10;;
24439;SDS011;12618;54.386;18.394;2022-10-18T13:04:53;9.33;;;3.25;;
24439;SDS011;12618;54.386;18.394;2022-10-18T13:07:33;8.30;;;3.30;;
24439;SDS011;12618;54.386;18.394;2022-10-18T13:12:48;5.25;;;2.67;;
24439;SDS011;12618;54.386;18.394;2022-10-18T13:18:13;10.75;;;3.12;;
24439;SDS011;12618;54.386;18.394;2022-10-18T13:26:17;10.53;;;3.92;;
24439;SDS011;12618;54.386;18.394;2022-10-18T13:28:59;10.00;;;3.55;;
24439;SDS011;12618;54.386;18.394;2022-10-18T13:31:29;8.30;;;3.20;;
24439;SDS011;12618;54.386;18.394;2022-10-18T13:34:33;9.08;;;3.50;;
24439;SDS011;12618;54.386;18.394;2022-10-18T13:36:38;8.73;;;3.20;;
24439;SDS011;12618;54.386;18.394;2022-10-18T13:39:17;12.82;;;3.42;;
24439;SDS011;12618;54.386;18.394;2022-10-18T13:44:21;13.38;;;3.72;;
24439;SDS011;12618;54.386;18.394;2022-10-18T13:57:07;12.82;;;5.95;;
24439;SDS011;12618;54.386;18.394;2022-10-18T13:59:42;11.65;;;6.22;;
24439;SDS011;12618;54.386;18.394;2022-10-18T14:07:19;8.40;;;4.00;;
24439;SDS011;12618;54.386;18.394;2022-10-18T14:09:50;11.08;;;3.83;;
24439;SDS011;12618;54.386;18.394;2022-10-18T14:12:43;7.75;;;3.70;;
24439;SDS011;12618;54.386;18.394;2022-10-18T14:14:55;11.12;;;3.50;;
24439;SDS011;12618;54.386;18.394;2022-10-18T14:20:00;10.65;;;3.42;;
24439;SDS011;12618;54.386;18.394;2022-10-18T14:22:38;8.68;;;3.70;;
24439;SDS011;12618;54.386;18.394;2022-10-18T14:30:34;9.78;;;3.67;;
24439;SDS011;12618;54.386;18.394;2022-10-18T14:33:21;11.25;;;3.17;;
24439;SDS011;12618;54.386;18.394;2022-10-18T14:35:37;7.25;;;2.90;;
24439;SDS011;12618;54.386;18.394;2022-10-18T14:38:12;8.85;;;3.08;;
24439;SDS011;12618;54.386;18.394;2022-10-18T14:40:43;12.88;;;3.62;;
24439;SDS011;12618;54.386;18.394;2022-10-18T14:43:14;9.10;;;3.75;;
24439;SDS011;12618;54.386;18.394;2022-10-18T14:45:45;12.50;;;3.47;;
24439;SDS011;12618;54.386;18.394;2022-10-18T14:48:21;9.03;;;3.15;;
24439;SDS011;12618;54.386;18.394;2022-10-18T14:50:56;12.15;;;3.60;;
24439;SDS011;12618;54.386;18.394;2022-10-18T14:53:31;10.53;;;3.37;;
24439;SDS011;12618;54.386;18.394;2022-10-18T14:56:03;9.48;;;3.12;;
24439;SDS011;12618;54.386;18.394;2022-10-18T14:58:35;11.28;;;3.17;;
24439;SDS011;12618;54.386;18.394;2022-10-18T15:01:07;10.48;;;3.72;;
24439;SDS011;12618;54.386;18.394;2022-10-18T15:03:39;11.83;;;3.40;;
24439;SDS011;12618;54.386;18.394;2022-10-18T15:06:18;7.87;;;3.58;;
24439;SDS011;12618;54.386;18.394;2022-10-18T15:08:51;11.70;;;3.85;;
24439;SDS011;12618;54.386;18.394;2022-10-18T15:11:21;7.62;;;3.98;;
24439;SDS011;12618;54.386;18.394;2022-10-18T15:13:54;12.43;;;5.03;;
24439;SDS011;12618;54.386;18.394;2022-10-18T15:16:29;14.10;;;4.47;;
24439;SDS011;12618;54.386;18.394;2022-10-18T15:21:35;9.85;;;4.30;;
24439;SDS011;12618;54.386;18.394;2022-10-18T15:26:55;13.05;;;3.52;;
24439;SDS011;12618;54.386;18.394;2022-10-18T15:29:29;12.90;;;3.92;;
24439;SDS011;12618;54.386;18.394;2022-10-18T15:34:43;11.50;;;4.08;;
24439;SDS011;12618;54.386;18.394;2022-10-18T15:37:15;14.45;;;4.95;;
24439;SDS011;12618;54.386;18.394;2022-10-18T15:39:47;9.95;;;3.75;;
24439;SDS011;12618;54.386;18.394;2022-10-18T15:42:33;10.23;;;3.52;;
24439;SDS011;12618;54.386;18.394;2022-10-18T15:45:20;12.43;;;3.62;;
24439;SDS011;12618;54.386;18.394;2022-10-18T15:47:37;12.75;;;4.67;;
24439;SDS011;12618;54.386;18.394;2022-10-18T15:50:08;13.83;;;4.45;;
24439;SDS011;12618;54.386;18.394;2022-10-18T15:52:41;10.75;;;4.50;;
24439;SDS011;12618;54.386;18.394;2022-10-18T15:57:50;14.47;;;6.10;;
24439;SDS011;12618;54.386;18.394;2022-10-18T16:00:20;18.55;;;6.97;;
24439;SDS011;12618;54.386;18.394;2022-10-18T16:02:51;23.70;;;11.22;;
24439;SDS011;12618;54.386;18.394;2022-10-18T16:05:21;21.55;;;8.85;;
24439;SDS011;12618;54.386;18.394;2022-10-18T16:07:52;18.77;;;8.78;;
24439;SDS011;12618;54.386;18.394;2022-10-18T16:10:22;15.68;;;6.65;;
24439;SDS011;12618;54.386;18.394;2022-10-18T16:12:53;12.33;;;5.50;;
24439;SDS011;12618;54.386;18.394;2022-10-18T16:15:23;12.10;;;4.80;;
24439;SDS011;12618;54.386;18.394;2022-10-18T16:17:54;16.05;;;5.62;;
24439;SDS011;12618;54.386;18.394;2022-10-18T16:20:24;14.75;;;5.65;;
24439;SDS011;12618;54.386;18.394;2022-10-18T16:22:56;14.35;;;5.28;;
24439;SDS011;12618;54.386;18.394;2022-10-18T16:25:26;11.80;;;5.50;;
24439;SDS011;12618;54.386;18.394;2022-10-18T16:27:57;11.33;;;5.40;;
24439;SDS011;12618;54.386;18.394;2022-10-18T16:30:27;14.30;;;6.12;;
24439;SDS011;12618;54.386;18.394;2022-10-18T16:32:59;12.45;;;5.78;;
24439;SDS011;12618;54.386;18.394;2022-10-18T16:35:30;13.08;;;5.62;;
24439;SDS011;12618;54.386;18.394;2022-10-18T16:38:00;15.63;;;4.83;;
24439;SDS011;12618;54.386;18.394;2022-10-18T16:40:31;13.20;;;4.75;;
24439;SDS011;12618;54.386;18.394;2022-10-18T16:43:01;17.90;;;5.50;;
24439;SDS011;12618;54.386;18.394;2022-10-18T16:45:31;13.78;;;6.80;;
24439;SDS011;12618;54.386;18.394;2022-10-18T16:48:02;13.40;;;5.40;;
24439;SDS011;12618;54.386;18.394;2022-10-18T16:50:32;9.95;;;4.40;;
24439;SDS011;12618;54.386;18.394;2022-10-18T16:53:03;12.78;;;5.28;;
24439;SDS011;12618;54.386;18.394;2022-10-18T16:55:34;14.45;;;5.72;;
24439;SDS011;12618;54.386;18.394;2022-10-18T16:58:04;14.50;;;6.35;;
24439;SDS011;12618;54.386;18.394;2022-10-18T17:00:35;15.55;;;5.87;;
24439;SDS011;12618;54.386;18.394;2022-10-18T17:03:06;12.47;;;4.53;;
24439;SDS011;12618;54.386;18.394;2022-10-18T17:05:38;11.28;;;4.50;;
24439;SDS011;12618;54.386;18.394;2022-10-18T17:08:14;12.03;;;4.80;;
24439;SDS011;12618;54.386;18.394;2022-10-18T17:10:41;12.18;;;3.98;;
24439;SDS011;12618;54.386;18.394;2022-10-18T17:13:11;10.50;;;4.58;;
24439;SDS011;12618;54.386;18.394;2022-10-18T17:15:42;11.97;;;4.62;;
24439;SDS011;12618;54.386;18.394;2022-10-18T17:18:13;15.75;;;5.33;;
24439;SDS011;12618;54.386;18.394;2022-10-18T17:20:44;15.23;;;5.30;;
24439;SDS011;12618;54.386;18.394;2022-10-18T17:23:14;11.48;;;4.72;;
24439;SDS011;12618;54.386;18.394;2022-10-18T17:25:44;10.15;;;4.80;;
24439;SDS011;12618;54.386;18.394;2022-10-18T17:28:16;10.43;;;4.85;;
24439;SDS011;12618;54.386;18.394;2022-10-18T17:30:47;11.38;;;5.33;;
24439;SDS011;12618;54.386;18.394;2022-10-18T17:33:18;11.55;;;5.37;;
24439;SDS011;12618;54.386;18.394;2022-10-18T17:35:48;12.37;;;5.22;;